Date,TemperatureHighF,TemperatureAvgF,TemperatureLowF,DewpointHighF,DewpointAvgF,DewpointLowF,HumidityHigh,HumidityAvg,HumidityLow,PressureMaxIn,PressureMinIn,WindSpeedMaxMPH,WindSpeedAvgMPH,GustSpeedMaxMPH,PrecipitationSumIn
2013-1-1,17.8,4.9,-6.2,9.5,-0.1,-8.6,90,80,58,30.27,30.08,9,4,9,0.00
2013-1-2,29.5,16.8,2.3,29.2,14.5,-0.6,99,90,70,30.12,29.97,14,6,14,0.00
2013-1-3,27.0,15.4,6.1,26.0,13.0,5.0,99,90,74,30.32,30.11,18,8,18,0.00
2013-1-4,36.3,21.4,12.7,27.1,18.1,11.2,99,88,65,30.22,30.11,21,7,21,0.00
2013-1-5,37.6,23.4,15.1,33.3,21.9,14.0,99,94,81,30.11,29.88,28,10,28,0.00
2013-1-6,30.6,17.9,8.8,22.3,14.7,6.1,96,87,66,30.25,30.05,17,7,22,0.00
2013-1-7,41.5,28.8,17.6,33.4,25.8,16.2,99,89,70,30.14,29.96,28,10,28,0.00
2013-1-8,42.8,30.4,19.4,37.2,28.9,19.2,99,94,79,30.03,29.81,17,7,17,0.00
2013-1-9,48.4,33.7,26.1,38.3,31.5,25.8,99,92,64,30.40,30.03,22,5,22,0.00
2013-1-10,42.6,32.9,26.1,35.9,31.0,25.8,99,93,76,30.35,29.70,21,9,21,0.02
2013-1-11,46.6,38.3,33.6,45.8,38.1,33.4,99,99,99,29.71,29.40,14,6,15,0.00
2013-1-12,36.9,20.3,12.6,36.6,16.1,8.4,99,84,77,30.06,29.52,21,10,21,0.01
2013-1-13,17.8,10.2,6.1,11.4,6.3,2.5,93,84,75,30.28,30.01,17,8,17,0.00
2013-1-14,32.4,16.0,4.3,19.8,11.1,2.8,95,82,56,30.40,30.27,17,4,17,0.00
2013-1-15,34.9,21.6,11.3,22.0,15.4,8.4,90,78,52,30.32,29.98,21,8,21,0.00
2013-1-16,47.7,31.4,18.9,39.8,27.6,15.7,99,86,73,30.19,29.82,27,12,27,0.00
2013-1-17,37.4,22.8,10.9,26.2,17.8,8.2,97,82,54,30.42,30.19,16,5,16,0.00
2013-1-18,54.0,37.3,24.1,39.7,32.2,23.0,98,83,55,30.27,29.83,44,13,44,0.00
2013-1-19,52.9,33.8,12.6,39.4,29.2,5.0,99,84,59,30.25,29.77,30,10,30,0.00
2013-1-20,13.6,8.7,1.9,10.4,4.9,-0.5,92,84,72,30.37,30.23,16,8,18,0.00
2013-1-21,6.4,0.4,-7.4,0.0,-5.2,-13.0,91,76,62,30.37,30.28,24,10,24,0.00
2013-1-22,16.5,7.2,-5.4,9.4,0.8,-8.2,90,75,52,30.38,30.23,15,4,15,0.00
2013-1-23,26.4,14.1,1.0,19.2,8.1,-5.8,90,77,63,30.50,30.12,25,12,25,0.00
2013-1-24,18.1,8.4,0.0,8.1,-1.7,-8.5,76,63,47,30.57,30.17,19,10,19,0.00
2013-1-25,35.4,19.5,6.6,25.9,12.1,2.3,89,73,62,30.27,30.03,24,11,24,0.00
2013-1-26,32.7,19.1,2.7,18.2,9.8,-0.2,89,68,47,30.31,30.10,16,7,16,0.00
2013-1-27,32.7,31.3,27.3,32.5,28.9,17.8,99,91,65,30.11,29.73,14,2,14,0.00
2013-1-28,53.8,34.0,30.6,53.5,33.7,29.2,99,99,99,29.90,29.55,22,5,22,0.13
2013-1-29,44.8,34.7,30.0,42.9,34.5,29.8,99,99,99,29.66,29.49,29,10,29,0.00
2013-1-30,30.2,20.6,10.4,30.0,19.2,7.5,99,94,84,29.81,29.50,33,19,33,0.00
2013-1-31,11.1,3.5,-4.4,7.9,-1.0,-8.7,92,81,71,30.31,29.81,28,16,29,0.00
2013-2-1,23.4,4.2,-8.9,20.7,-0.6,-11.9,94,80,60,30.32,29.97,21,10,21,0.00
2013-2-2,31.6,18.0,10.4,31.4,15.1,7.1,99,88,69,30.15,29.65,24,8,24,0.00
2013-2-3,33.1,23.4,11.8,31.0,19.5,10.5,99,85,70,30.12,29.76,26,9,26,0.00
2013-2-4,28.0,21.2,16.5,22.8,19.2,15.9,99,92,74,30.01,29.74,20,7,20,0.00
2013-2-5,41.4,29.5,20.5,36.6,28.2,20.3,99,95,81,30.08,29.74,20,8,20,0.00
2013-2-6,40.3,30.2,18.1,38.1,29.4,17.2,99,97,89,30.09,29.88,16,6,16,0.00
2013-2-7,38.8,29.8,25.7,38.6,29.6,25.5,99,99,99,30.17,29.86,24,11,24,0.02
2013-2-8,29.7,25.9,22.6,29.2,25.1,22.4,99,97,88,30.33,30.17,17,8,18,0.00
2013-2-9,34.3,29.8,22.6,33.6,29.5,22.4,99,99,95,30.22,29.91,21,13,21,0.00
2013-2-10,43.5,34.8,29.1,41.8,34.3,28.9,99,98,91,29.91,29.24,36,16,36,0.19
2013-2-11,30.4,27.7,24.8,29.2,25.5,23.0,99,91,85,30.09,29.51,35,16,35,0.00
2013-2-12,45.9,31.8,19.8,34.6,27.6,19.6,99,85,61,30.11,29.83,26,8,26,0.00
2013-2-13,50.4,37.1,23.4,40.6,33.1,23.1,99,86,64,29.84,29.63,21,7,21,0.00
2013-2-14,40.3,32.6,20.8,35.1,30.4,16.3,99,91,76,30.16,29.67,27,12,27,0.00
2013-2-15,28.2,19.7,12.7,20.3,14.4,9.0,95,80,63,30.28,30.15,17,10,17,0.00
2013-2-16,37.4,22.1,7.3,24.4,17.1,7.2,99,83,51,30.26,30.05,14,4,14,0.00
2013-2-17,42.8,30.4,17.1,31.8,25.3,16.9,99,82,61,30.06,29.62,21,10,21,0.00
2013-2-18,39.9,28.2,11.3,36.2,25.3,7.7,99,89,79,29.88,29.53,31,12,31,0.00
2013-2-19,20.1,10.6,0.3,10.3,4.6,-3.8,90,77,62,30.34,29.88,30,16,30,0.00
2013-2-20,26.4,11.8,-2.2,15.0,4.1,-5.4,88,72,50,30.41,30.25,15,7,15,0.00
2013-2-21,25.7,19.6,13.3,23.1,16.3,5.4,99,87,69,30.30,29.84,28,14,28,0.00
2013-2-22,28.9,21.8,11.7,27.1,20.6,11.0,99,95,82,29.94,29.76,17,7,19,0.01
2013-2-23,36.9,19.2,5.4,25.5,15.4,5.0,99,86,58,29.93,29.85,10,4,10,0.00
2013-2-24,42.1,24.3,8.4,32.3,21.4,8.3,99,90,59,30.05,29.90,9,4,9,0.00
2013-2-25,40.5,30.5,24.8,34.5,29.0,24.6,99,94,77,30.07,29.90,11,4,11,0.00
2013-2-26,32.0,28.8,26.1,31.8,28.4,25.8,99,99,93,29.91,29.73,21,11,23,0.00
2013-2-27,30.9,27.1,22.5,28.9,26.1,19.7,99,96,89,29.96,29.77,24,12,24,0.01
2013-2-28,32.2,25.8,17.8,28.6,24.5,17.6,99,95,83,30.15,29.95,14,10,14,0.00
2013-3-1,30.6,25.2,19.4,26.6,22.7,17.7,99,91,77,30.30,30.13,16,8,16,0.00
2013-3-2,34.5,23.2,9.3,23.8,18.5,9.2,99,83,59,30.30,30.14,9,4,9,0.00
2013-3-3,38.1,27.6,19.4,29.5,24.5,18.9,99,89,65,30.14,29.89,27,13,27,0.00
2013-3-4,35.6,28.6,24.6,35.1,28.3,19.6,99,99,96,29.95,29.79,30,16,30,0.01
2013-3-5,31.6,27.3,21.4,29.7,26.2,20.5,99,96,80,30.25,29.91,23,11,23,0.00
2013-3-6,29.7,22.8,13.8,25.4,20.9,13.6,99,93,75,30.38,30.25,17,7,18,0.00
2013-3-7,36.0,20.8,9.0,29.5,19.2,8.8,99,94,68,30.33,30.22,21,9,21,0.00
2013-3-8,42.4,32.0,19.8,36.5,30.2,19.6,99,93,73,30.26,30.00,21,11,21,0.02
2013-3-9,40.8,36.3,33.8,38.2,36.0,33.0,99,99,99,30.02,29.65,21,9,21,0.70
2013-3-10,39.2,33.4,29.1,38.9,33.1,28.2,99,99,99,29.78,29.64,26,14,26,0.15
2013-3-11,30.4,25.9,20.3,29.1,25.5,19.6,99,98,94,29.90,29.71,20,9,20,0.00
2013-3-12,32.2,23.8,15.8,31.0,22.7,15.6,99,95,86,30.20,29.89,20,9,20,0.01
2013-3-13,33.6,21.7,12.6,25.2,18.2,11.9,99,87,65,30.40,30.20,14,6,14,0.05
2013-3-14,46.2,33.3,17.8,38.0,30.2,17.3,99,89,69,30.26,30.03,12,5,12,0.00
2013-3-15,46.8,35.4,29.3,44.2,34.9,28.3,99,98,89,30.03,29.71,13,4,13,0.00
2013-3-16,33.8,29.6,23.9,33.6,27.4,20.9,99,91,79,30.18,29.78,30,12,30,0.00
2013-3-17,39.4,27.4,18.0,35.0,24.1,15.3,98,87,74,30.18,29.82,24,13,24,0.00
2013-3-18,33.1,26.0,16.9,32.1,23.5,12.1,99,90,75,29.94,29.67,27,10,27,0.00
2013-3-19,32.9,21.8,11.8,25.0,15.2,7.4,95,76,55,30.24,29.92,24,8,24,0.00
2013-3-20,25.5,18.9,11.5,16.8,12.0,6.2,88,74,57,30.29,30.11,23,12,23,0.00
2013-3-21,33.6,21.3,8.8,21.1,14.1,6.1,92,74,47,30.11,29.96,13,5,13,0.00
2013-3-22,41.4,27.5,16.5,27.0,20.9,14.4,95,77,49,30.06,29.98,9,4,9,0.00
2013-3-23,39.4,31.3,24.3,29.2,25.7,22.1,99,81,55,30.11,30.00,12,5,12,0.00
2013-3-24,31.1,28.5,25.7,30.3,27.7,25.5,99,97,87,30.03,29.88,21,12,21,0.00
2013-3-25,35.8,30.4,26.6,30.8,27.0,24.0,99,87,72,30.22,29.95,24,12,24,0.00
2013-3-26,41.7,30.6,21.0,31.5,25.2,20.1,97,81,55,30.30,30.22,13,5,13,0.00
2013-3-27,47.7,35.8,25.0,35.1,29.7,24.6,99,81,50,30.31,30.22,12,4,12,0.00
2013-3-28,54.3,40.0,28.2,42.8,35.3,28.0,99,85,56,30.29,30.20,13,6,13,0.00
2013-3-29,60.8,44.8,30.7,45.7,38.3,30.5,99,81,52,30.25,30.08,12,6,12,0.00
2013-3-30,59.2,46.0,38.3,54.1,44.3,36.9,99,94,76,30.08,29.85,14,5,14,0.04
2013-3-31,48.9,38.1,28.0,43.2,33.9,23.0,99,85,68,30.08,29.87,26,8,26,0.00
2013-4-1,36.7,28.4,21.2,26.5,21.7,17.6,98,76,58,30.27,30.08,23,10,23,0.00
2013-4-2,43.9,32.1,20.3,30.8,25.8,19.3,99,80,44,30.32,30.25,17,4,17,0.00
2013-4-3,52.2,36.5,24.3,32.4,27.0,23.1,97,71,44,30.37,30.19,13,6,13,0.00
2013-4-4,59.9,44.1,29.1,46.3,35.0,25.8,94,72,46,30.20,30.03,14,7,14,0.00
2013-4-5,57.7,44.3,29.5,37.6,32.4,26.7,99,68,31,30.17,29.80,18,9,18,0.00
2013-4-6,67.5,52.1,39.2,56.3,44.8,37.2,99,77,55,29.80,29.52,34,9,34,0.01
2013-4-7,64.2,46.1,34.2,51.1,40.9,33.4,99,84,54,29.92,29.65,19,7,19,0.00
2013-4-8,76.6,61.6,43.2,58.1,51.1,42.9,99,73,36,29.83,29.59,17,5,17,0.00
2013-4-9,51.3,44.0,34.9,51.0,43.7,34.6,99,99,98,29.98,29.70,23,12,23,0.84
2013-4-10,40.6,37.0,34.7,39.8,36.7,28.3,99,99,99,30.00,29.69,34,11,34,0.37
2013-4-11,41.7,37.6,32.7,41.5,37.2,32.5,99,99,93,29.73,29.55,17,6,18,0.24
2013-4-12,37.6,34.3,32.2,35.5,33.2,31.1,99,96,86,29.91,29.57,14,6,14,0.00
2013-4-13,51.4,40.5,29.1,40.1,35.0,28.6,99,82,60,29.96,29.82,13,4,14,0.02
2013-4-14,66.0,47.1,37.8,60.0,46.2,37.0,99,97,77,29.82,29.37,47,13,49,0.46
2013-4-15,45.3,39.5,33.3,44.5,35.5,30.8,99,86,74,30.05,29.62,17,7,17,0.00
2013-4-16,52.9,41.3,31.8,40.1,35.5,31.3,99,81,57,30.23,30.02,15,6,15,0.00
2013-4-17,44.1,41.4,38.7,42.0,39.9,37.7,99,95,82,30.19,29.63,30,11,31,0.79
2013-4-18,40.3,36.1,33.1,40.0,35.9,32.8,99,99,98,29.75,29.52,23,14,23,0.40
2013-4-19,39.6,33.9,29.5,33.7,30.4,27.7,99,87,71,30.03,29.63,27,15,27,0.00
2013-4-20,48.2,37.4,25.0,33.9,27.4,19.9,99,71,35,30.25,30.03,15,6,15,0.00
2013-4-21,68.0,50.4,38.8,52.3,41.2,32.3,99,74,33,30.22,30.00,40,12,40,0.34
2013-4-22,61.5,49.5,34.2,54.8,47.7,33.9,99,94,72,30.12,29.88,24,7,24,0.25
2013-4-23,42.3,34.9,29.3,36.1,31.3,26.2,99,87,63,30.13,30.03,25,15,25,0.01
2013-4-24,56.8,40.6,24.8,41.9,31.5,24.6,99,75,32,30.12,29.95,36,9,36,0.01
2013-4-25,63.1,46.3,28.9,38.9,33.2,28.6,99,66,27,30.24,30.08,22,7,22,0.00
2013-4-26,68.9,60.5,45.0,48.4,45.0,38.6,88,59,45,30.18,30.04,44,27,44,0.00
2013-4-27,68.9,68.9,68.9,47.3,47.3,47.3,46,46,46,30.18,29.96,39,39,39,0.00
2013-4-28,68.9,68.9,68.9,47.3,47.3,47.3,46,46,46,29.98,29.71,39,39,39,0.00
2013-4-29,68.9,21.0,0.0,47.3,47.3,47.3,46,14,46,29.77,29.52,39,12,39,0.00
2013-4-30,62.6,9.8,0.0,51.6,46.6,27.9,99,16,36,30.29,29.50,34,2,34,0.01
2013-5-1,53.8,44.5,36.0,51.0,41.8,35.7,99,91,79,30.47,30.01,30,18,30,0.07
2013-5-2,36.5,33.8,30.6,36.1,33.3,30.3,99,98,88,30.56,30.42,29,14,29,0.46
2013-5-3,34.3,32.9,31.5,34.1,32.6,31.2,99,99,98,30.46,30.10,24,14,24,0.06
2013-5-4,46.4,38.4,33.1,46.1,38.2,32.8,99,99,99,30.21,30.03,21,10,21,0.26
2013-5-5,59.4,48.4,40.3,56.4,47.4,40.0,99,97,87,30.24,30.17,14,8,14,0.01
2013-5-6,75.9,58.5,42.4,59.9,50.8,42.2,99,79,43,30.22,30.13,12,6,12,0.00
2013-5-7,79.9,65.1,47.8,58.3,51.2,43.4,99,67,29,30.19,30.08,14,3,14,0.00
2013-5-8,77.4,62.4,52.2,60.2,55.8,50.1,99,81,46,30.12,30.04,25,6,25,0.04
2013-5-9,70.5,59.2,50.7,62.9,57.7,50.5,99,95,72,30.07,29.97,26,8,26,0.53
2013-5-10,68.9,55.3,45.9,56.4,49.1,44.7,99,82,45,30.15,30.06,21,9,21,0.00
2013-5-11,56.8,51.2,40.5,49.5,30.5,10.3,94,51,16,30.31,30.06,34,13,34,0.00
2013-5-12,62.8,49.1,33.8,31.3,21.9,3.2,79,41,10,30.36,30.22,17,6,17,0.00
2013-5-13,78.4,60.8,39.6,52.3,39.3,25.1,83,48,24,30.24,29.92,38,9,38,0.00
2013-5-14,100.6,80.8,57.6,62.8,48.9,32.6,87,42,10,29.92,29.67,51,17,51,0.00
2013-5-15,82.6,70.7,56.3,51.3,42.8,27.8,73,40,14,30.06,29.84,16,6,16,0.00
2013-5-16,86.2,71.6,54.9,69.5,55.5,43.1,99,62,25,30.04,29.90,21,6,21,0.08
2013-5-17,82.8,71.0,59.7,68.6,63.6,59.5,99,80,47,30.06,29.94,21,6,21,0.01
2013-5-18,87.8,73.5,58.5,67.0,62.7,58.2,99,72,41,30.06,29.87,22,8,22,0.01
2013-5-19,89.1,73.1,61.5,71.1,64.6,51.3,99,79,28,29.93,29.67,39,13,40,0.59
2013-5-20,75.9,66.5,59.2,65.3,61.8,58.9,99,86,60,29.78,29.65,40,16,40,0.00
2013-5-21,69.6,62.2,57.2,61.6,55.0,50.2,99,79,54,29.79,29.66,30,9,30,0.00
2013-5-22,62.1,56.8,52.3,58.5,55.7,52.1,99,96,86,30.01,29.76,14,7,14,0.02
2013-5-23,70.5,59.7,51.6,54.6,47.9,38.2,99,70,36,30.39,30.01,17,8,17,0.01
2013-5-24,72.3,60.7,45.0,55.1,46.5,40.6,86,62,38,30.47,30.26,21,9,21,0.00
2013-5-25,60.1,53.5,50.5,56.9,51.9,49.5,99,95,69,30.34,30.22,27,14,27,1.64
2013-5-26,61.5,52.5,50.0,59.2,51.9,49.7,99,98,87,30.33,30.14,27,13,27,0.26
2013-5-27,73.8,64.1,55.0,67.3,61.8,54.8,99,93,75,30.15,29.77,30,7,30,0.53
2013-5-28,80.2,70.5,62.4,71.1,66.7,62.2,99,89,62,29.89,29.75,17,5,17,0.11
2013-5-29,74.3,67.2,63.5,72.1,66.1,63.1,99,96,84,29.91,29.77,33,8,33,0.83
2013-5-30,71.2,67.8,64.0,70.4,65.7,62.1,99,93,84,29.80,29.66,32,12,32,0.00
2013-5-31,79.3,69.3,60.1,67.7,62.4,51.1,99,81,39,29.79,29.72,38,15,38,0.04
2013-6-1,69.8,61.2,55.0,66.1,58.3,52.4,99,90,76,30.03,29.72,23,8,23,0.06
2013-6-2,65.7,57.7,49.5,53.6,48.2,43.4,94,72,46,30.19,30.02,19,7,19,0.00
2013-6-3,72.3,62.3,49.5,54.9,49.8,44.3,94,67,37,30.19,30.04,18,6,19,0.00
2013-6-4,65.1,59.2,55.4,62.5,57.3,53.4,99,94,81,30.17,30.07,17,8,17,0.20
2013-6-5,71.8,61.9,56.7,63.8,58.8,55.5,99,91,67,30.13,30.03,8,4,8,0.07
2013-6-6,67.6,60.7,54.1,60.2,55.9,53.2,99,85,64,30.11,30.01,17,6,17,0.00
2013-6-7,69.8,59.8,51.6,57.6,53.5,51.1,99,82,53,30.14,30.03,11,4,11,0.00
2013-6-8,70.5,62.1,51.6,63.2,57.6,51.4,99,86,61,30.05,29.88,18,7,18,0.13
2013-6-9,73.4,65.5,59.9,66.6,62.7,59.6,99,91,72,29.89,29.80,29,11,29,0.11
2013-6-10,77.5,66.9,58.3,67.1,62.8,58.0,99,88,66,30.01,29.88,11,3,11,0.00
2013-6-11,88.3,76.2,64.6,75.2,69.8,64.3,99,82,60,30.02,29.86,18,7,18,0.00
2013-6-12,88.3,75.5,64.0,78.1,71.8,59.7,99,89,65,30.00,29.79,23,8,23,0.22
2013-6-13,83.7,72.2,60.3,60.4,57.2,50.6,91,63,34,30.17,30.00,21,6,21,0.00
2013-6-14,77.2,69.0,64.0,68.0,63.2,58.4,99,82,63,30.18,29.94,31,9,32,0.57
2013-6-15,79.7,71.5,63.5,76.4,69.4,63.2,99,93,80,30.09,29.95,33,7,33,0.25
2013-6-16,87.4,75.5,64.6,70.8,59.4,39.7,99,65,19,30.08,30.01,10,3,11,0.00
2013-6-17,88.7,75.3,61.2,69.0,58.6,49.2,96,60,30,30.09,30.00,14,4,14,0.00
2013-6-18,84.9,72.9,61.7,64.9,60.2,54.9,94,67,41,30.14,30.06,11,4,11,0.00
2013-6-19,84.9,74.4,63.0,67.6,63.1,57.9,94,70,43,30.18,30.06,19,8,19,0.00
2013-6-20,88.9,79.4,68.2,69.2,66.3,61.9,87,66,42,30.13,30.00,29,12,29,0.00
2013-6-21,90.0,79.3,70.5,77.1,71.9,64.8,89,78,61,30.10,29.93,27,12,27,0.00
2013-6-22,92.3,81.3,68.4,75.6,71.0,62.1,91,72,39,30.12,29.93,25,10,25,0.00
2013-6-23,80.8,75.7,66.9,73.9,70.9,66.1,99,85,69,30.03,29.83,26,9,26,0.20
2013-6-24,73.9,69.9,65.8,73.7,69.6,65.6,99,99,95,30.11,29.91,38,9,38,0.48
2013-6-25,68.2,64.4,0.0,67.9,64.5,29.1,99,98,99,29.94,29.83,11,11,13,28.31
2013-6-26,91.6,80.0,29.3,81.0,72.0,29.1,99,80,39,30.06,29.85,17,5,17,28.31
2013-6-27,86.5,76.4,66.7,70.4,66.2,55.4,96,72,35,30.13,30.04,14,4,14,0.00
2013-6-28,85.6,76.0,66.4,64.5,58.1,46.9,91,57,26,30.08,29.97,26,10,26,0.00
2013-6-29,77.4,69.7,63.7,67.0,59.9,55.2,92,72,51,30.12,29.96,25,9,25,0.02
2013-6-30,81.1,69.1,57.4,58.7,51.9,40.2,99,60,24,30.29,30.11,16,6,16,0.00
2013-7-1,85.5,72.3,57.6,58.9,51.8,41.2,89,54,23,30.34,30.28,14,6,14,0.00
2013-7-2,86.4,72.8,57.4,60.6,50.0,25.3,95,52,11,30.33,30.20,17,4,17,0.00
2013-7-3,85.1,71.6,58.1,63.9,58.1,49.5,99,66,34,30.26,30.15,13,4,13,0.00
2013-7-4,84.9,74.3,61.9,65.8,60.2,54.4,99,65,36,30.22,30.11,23,8,23,0.00
2013-7-5,88.0,77.1,63.5,66.2,62.2,58.8,90,62,39,30.17,30.07,21,9,21,0.00
2013-7-6,90.1,78.2,68.0,69.3,65.2,62.0,87,66,40,30.14,30.03,23,9,23,0.00
2013-7-7,90.9,81.5,72.1,74.7,69.0,64.0,86,67,46,30.10,30.03,28,10,28,0.00
2013-7-8,93.6,82.0,73.6,77.9,74.5,72.2,97,79,51,30.15,30.07,15,5,17,0.00
2013-7-9,91.9,80.7,74.1,80.7,75.8,72.4,99,86,62,30.16,30.06,24,6,24,0.37
2013-7-10,84.4,74.4,67.1,72.6,60.8,48.8,99,67,33,30.27,30.13,20,6,20,0.00
2013-7-11,84.7,72.8,61.2,63.9,58.8,51.9,89,64,33,30.33,30.20,13,5,13,0.00
2013-7-12,85.3,73.8,61.5,65.3,61.9,59.0,96,69,44,30.28,30.17,21,9,21,0.00
2013-7-13,78.1,71.9,67.3,67.4,62.1,57.5,83,71,64,30.28,30.19,17,9,18,0.00
2013-7-14,86.9,75.7,63.5,68.3,64.8,60.0,99,72,43,30.39,30.25,18,6,18,0.00
2013-7-15,88.2,77.1,65.1,74.5,69.3,64.0,97,78,57,30.43,30.33,13,5,14,0.00
2013-7-16,92.3,83.0,73.8,76.2,72.9,68.9,98,74,47,30.45,30.38,13,5,13,0.00
2013-7-17,96.1,83.6,71.2,76.9,72.7,68.0,99,73,43,30.50,30.36,13,4,13,0.00
2013-7-18,92.7,82.9,72.7,75.2,71.6,66.8,99,71,44,30.38,30.11,29,11,29,0.00
2013-7-19,94.6,82.5,68.5,74.7,68.1,58.0,83,64,31,30.13,30.03,16,7,16,0.00
2013-7-20,90.9,77.2,59.0,68.4,62.0,57.6,99,64,34,30.18,30.07,8,3,8,0.00
2013-7-21,86.9,82.0,0.0,69.2,63.8,60.3,99,55,42,30.14,29.85,18,5,18,0.00
2013-7-22,91.8,75.8,64.8,76.4,69.7,64.5,99,84,47,29.89,29.71,41,8,41,0.53
2013-7-23,78.1,68.7,61.0,69.5,63.0,59.2,99,84,56,30.03,29.85,13,4,13,0.00
2013-7-24,81.7,69.4,56.5,64.8,60.5,55.9,99,76,43,30.11,30.02,8,3,8,0.00
2013-7-25,85.1,72.6,60.3,69.8,65.3,60.0,99,80,53,30.08,29.94,25,7,25,0.01
2013-7-26,75.2,68.5,58.6,70.8,60.7,54.9,99,78,51,30.10,29.97,20,6,20,0.00
2013-7-27,69.3,59.8,50.4,55.6,49.8,44.2,99,73,42,30.13,30.02,16,5,16,0.00
2013-7-28,73.8,61.9,49.1,54.7,50.9,48.0,98,70,46,30.11,30.02,12,4,12,0.00
2013-7-29,74.1,64.2,49.8,61.8,55.8,49.6,99,76,48,30.17,30.10,13,5,13,0.00
2013-7-30,71.8,67.0,62.6,69.2,65.6,61.1,99,96,85,30.13,30.08,9,3,9,0.05
2013-7-31,83.7,71.7,62.6,71.7,65.6,60.7,99,83,54,30.16,30.05,14,2,14,0.00
2013-8-1,87.3,71.9,57.7,66.9,62.9,57.5,99,77,43,30.12,29.93,15,4,15,0.00
2013-8-2,83.7,69.0,63.0,70.0,63.8,54.2,99,86,39,30.07,29.93,11,3,11,0.13
2013-8-3,81.9,68.5,56.8,63.8,59.1,51.3,99,76,36,30.22,30.06,9,3,9,0.00
2013-8-4,81.9,68.8,54.9,62.3,58.5,51.7,98,73,38,30.24,30.07,12,4,12,0.00
2013-8-5,85.3,73.1,63.5,74.0,68.1,60.7,99,85,60,30.08,29.85,17,4,17,0.00
2013-8-6,88.3,76.0,62.1,74.8,69.6,61.8,99,83,52,29.93,29.80,19,4,19,0.00
2013-8-7,77.9,70.9,63.1,71.0,65.7,61.1,99,84,63,30.06,29.85,15,5,15,0.02
2013-8-8,81.5,68.8,56.1,65.8,60.9,54.6,99,78,47,30.08,30.00,8,3,8,0.00
2013-8-9,81.9,71.1,62.6,68.4,62.6,55.9,99,77,46,30.17,30.03,14,4,14,0.00
2013-8-10,85.8,70.0,54.7,66.7,60.3,54.4,99,75,39,30.23,30.10,14,2,14,0.00
2013-8-11,84.2,73.6,63.9,71.3,67.0,62.3,99,81,56,30.16,29.99,21,6,21,0.04
2013-8-12,82.4,71.2,61.5,72.0,63.8,55.2,99,80,44,30.10,30.02,14,5,14,0.01
2013-8-13,79.2,66.0,54.7,63.2,57.7,53.0,99,77,47,30.22,30.09,8,3,8,0.00
2013-8-14,79.9,63.8,48.7,58.6,51.6,42.2,99,70,28,30.26,30.15,9,2,9,0.00
2013-8-15,73.4,64.8,55.6,61.7,57.3,53.1,97,78,51,30.19,30.13,16,4,16,0.00
2013-8-16,79.9,65.3,49.6,60.5,55.3,49.4,99,74,40,30.25,30.17,10,3,10,0.00
2013-8-17,83.3,68.2,51.4,62.2,55.9,50.2,99,70,33,30.26,30.14,16,3,16,0.00
2013-8-18,83.3,69.1,54.1,64.2,58.9,53.7,99,74,39,30.21,30.08,17,4,17,0.00
2013-8-19,69.4,26.2,0.0,66.4,59.5,59.1,95,40,86,30.12,29.99,5,1,5,0.00
2013-8-20,89.2,77.0,67.8,73.8,69.4,65.8,95,79,54,30.02,29.93,26,8,26,0.00
2013-8-21,90.0,79.1,70.2,74.5,71.1,68.6,95,78,51,30.01,29.96,22,9,22,0.00
2013-8-22,88.3,77.3,69.6,73.9,70.9,68.0,99,83,53,30.12,30.00,13,3,13,0.00
2013-8-23,86.4,76.4,65.3,75.0,71.6,65.0,99,86,66,30.15,30.06,13,6,13,0.00
2013-8-24,89.1,78.0,69.4,76.8,72.9,69.2,99,85,61,30.17,30.06,16,8,16,0.00
2013-8-25,93.0,81.2,69.6,75.3,72.3,68.9,99,76,54,30.17,30.06,24,8,24,0.00
2013-8-26,95.4,82.8,71.2,76.5,72.8,70.2,99,74,46,30.12,29.96,21,9,21,0.00
2013-8-27,95.2,84.0,74.7,74.8,72.7,70.9,90,71,48,29.99,29.89,25,12,25,0.00
2013-8-28,98.2,82.5,70.5,75.7,71.3,67.8,99,73,39,30.03,29.95,11,3,11,0.00
2013-8-29,94.1,81.6,69.6,76.1,72.7,69.4,99,77,49,30.06,29.93,17,4,17,0.00
2013-8-30,100.9,82.9,70.9,81.5,74.9,68.5,99,80,37,29.94,29.83,15,4,15,0.00
2013-8-31,93.9,77.7,64.2,74.6,69.8,64.0,99,80,46,29.89,29.79,8,3,8,0.00
2013-9-1,81.0,72.2,60.3,72.4,65.3,59.4,99,81,53,30.01,29.70,31,8,31,0.08
2013-9-2,75.9,64.1,53.4,60.8,56.2,51.8,99,79,45,30.10,30.00,14,5,14,0.00
2013-9-3,82.8,65.1,45.3,62.1,54.7,45.1,99,74,37,30.16,30.04,10,3,10,0.00
2013-9-4,91.6,74.1,56.8,67.6,61.6,56.1,99,70,32,30.18,30.08,14,3,14,0.00
2013-9-5,93.2,77.3,65.8,71.7,66.8,62.4,99,74,38,30.23,30.14,10,2,10,0.00
2013-9-6,90.3,77.5,63.3,71.0,64.6,56.9,99,69,33,30.16,29.96,22,7,22,0.00
2013-9-7,96.1,79.5,68.7,75.2,70.0,62.5,97,74,40,29.98,29.88,15,4,16,0.00
2013-9-8,80.2,73.9,70.0,74.5,72.1,69.7,99,94,81,30.01,29.87,17,6,17,0.00
2013-9-9,98.6,81.8,68.5,74.6,65.6,54.0,99,66,23,29.88,29.78,37,10,37,0.00
2013-9-10,94.8,80.5,66.4,71.1,65.3,61.1,87,63,33,30.04,29.87,24,7,24,0.00
2013-9-11,91.8,75.6,66.0,69.6,65.1,53.6,99,73,36,30.12,30.01,10,2,10,0.00
2013-9-12,77.4,66.7,55.8,62.4,52.3,41.7,97,65,28,30.24,30.09,20,7,20,0.00
2013-9-13,78.3,59.7,44.8,52.0,47.1,43.1,96,67,29,30.29,30.14,9,3,9,0.00
2013-9-14,60.4,49.2,44.2,49.0,44.9,41.9,93,85,60,30.15,30.12,14,4,14,0.00
2013-9-15,68.2,62.3,55.0,61.2,55.3,49.2,97,78,52,30.28,29.88,21,4,21,0.01
2013-9-16,68.4,57.5,50.0,58.4,53.0,49.7,99,86,58,30.39,30.26,12,5,12,0.00
2013-9-17,63.5,55.9,50.0,63.2,55.6,49.6,99,99,95,30.29,30.01,14,7,14,0.24
2013-9-18,90.0,74.2,63.5,73.6,68.3,63.2,99,84,51,30.01,29.76,21,9,21,0.27
2013-9-19,85.5,73.6,63.5,73.4,70.1,63.2,99,90,56,29.91,29.76,23,7,25,0.27
2013-9-20,64.2,57.5,48.4,63.2,53.5,45.6,99,87,68,30.02,29.91,11,5,11,0.00
2013-9-21,72.1,56.7,42.1,50.5,45.6,40.1,99,72,33,30.07,29.92,10,3,10,0.00
2013-9-22,78.1,61.2,46.9,56.8,51.8,46.7,99,75,43,30.01,29.89,17,6,17,0.00
2013-9-23,76.3,62.7,48.7,55.8,52.0,48.3,99,72,39,30.00,29.86,22,8,22,0.00
2013-9-24,74.7,61.5,52.5,59.8,55.1,51.1,97,81,56,29.96,29.89,14,7,14,0.00
2013-9-25,78.8,64.1,50.4,60.2,54.9,50.1,99,76,40,30.00,29.86,14,6,14,0.00
2013-9-26,84.4,69.2,56.7,64.3,59.9,55.1,99,75,44,29.97,29.88,21,10,21,0.00
2013-9-27,87.4,74.4,64.8,66.4,62.9,56.5,96,71,35,29.99,29.89,28,11,28,0.00
2013-9-28,70.5,62.2,48.0,67.6,58.8,45.9,99,89,69,30.06,29.79,23,8,23,0.06
2013-9-29,76.5,59.5,44.2,52.5,44.8,34.4,99,66,22,30.09,29.93,25,7,25,0.00
2013-9-30,77.7,63.4,50.4,56.4,50.8,46.0,99,68,33,29.96,29.75,24,8,24,0.00
2013-10-1,84.9,67.7,55.6,59.5,46.2,22.1,99,55,11,30.01,29.80,13,4,13,0.00
2013-10-2,85.1,70.6,57.4,65.5,50.3,29.0,91,51,19,30.07,29.88,18,7,18,0.00
2013-10-3,84.0,71.1,63.0,70.3,63.5,56.6,99,81,40,29.89,29.78,24,6,24,0.00
2013-10-4,72.5,66.4,61.3,70.4,65.4,61.1,99,97,84,29.93,29.80,19,7,19,0.77
2013-10-5,68.4,53.6,45.3,67.2,43.4,36.7,96,70,46,29.95,29.80,23,10,23,0.00
2013-10-6,50.2,48.3,41.9,49.2,47.5,37.7,99,97,74,29.93,29.77,12,6,12,0.11
2013-10-7,76.1,57.4,40.8,48.3,42.7,36.4,99,65,26,30.06,29.93,11,4,11,0.00
2013-10-8,78.6,62.4,47.3,50.7,44.7,33.0,93,59,21,30.08,29.98,36,13,36,0.00
2013-10-9,76.1,60.5,47.3,54.2,48.9,43.1,99,70,33,30.13,30.04,20,8,20,0.00
2013-10-10,78.8,62.1,45.7,54.2,49.1,42.1,99,68,28,30.10,29.91,22,8,22,0.00
2013-10-11,72.3,63.7,53.2,65.2,59.2,51.6,99,86,69,29.94,29.74,30,11,30,0.00
2013-10-12,67.8,55.7,43.2,52.3,37.9,20.3,91,57,18,30.27,29.85,16,4,16,0.00
2013-10-13,68.9,51.1,32.9,41.7,31.6,22.2,95,54,17,30.47,30.27,8,3,8,0.00
2013-10-14,66.2,52.2,37.4,50.6,37.7,30.9,90,62,28,30.38,29.86,23,10,23,0.06
2013-10-15,57.9,50.1,46.0,57.5,48.4,44.1,99,94,83,29.94,29.78,25,10,25,0.24
2013-10-16,48.9,45.4,38.3,47.0,43.5,37.2,99,93,77,30.03,29.93,14,6,14,0.00
2013-10-17,63.5,48.7,36.5,46.7,39.5,32.3,99,76,34,29.98,29.84,17,5,18,0.00
2013-10-18,52.2,43.7,34.7,40.4,33.5,26.1,99,71,37,30.08,29.97,15,6,15,0.00
2013-10-19,57.7,42.7,31.8,42.8,35.9,30.8,99,78,47,29.97,29.80,21,5,21,0.00
2013-10-20,62.8,47.3,36.9,44.8,38.2,32.8,87,72,44,29.97,29.71,19,8,19,0.00
2013-10-21,49.5,39.4,29.1,35.8,28.9,23.3,94,68,37,30.09,29.97,17,5,19,0.00
2013-10-22,42.8,37.0,34.0,37.0,33.8,29.8,99,89,70,30.10,29.92,16,5,16,0.14
2013-10-23,41.2,35.3,27.5,38.7,32.2,26.0,99,89,63,30.16,30.07,10,4,10,0.01
2013-10-24,46.4,36.9,28.9,33.4,29.6,23.9,97,76,52,30.37,30.16,17,5,17,0.00
2013-10-25,57.0,40.0,24.1,35.0,30.3,23.9,99,72,40,30.40,30.01,40,13,40,0.00
2013-10-26,52.3,42.9,29.8,37.0,30.2,24.9,89,63,37,30.17,29.96,24,8,24,0.00
2013-10-27,64.6,43.1,24.4,36.9,30.3,22.9,96,66,28,30.14,29.85,30,8,30,0.00
2013-10-28,51.8,42.7,37.0,39.2,35.9,32.7,89,77,61,30.32,30.01,21,10,21,0.00
2013-10-29,56.1,46.5,38.3,49.5,41.3,34.2,91,82,65,30.31,30.03,17,10,17,0.00
2013-10-30,66.6,55.3,50.5,62.0,54.4,48.8,99,97,80,30.04,29.68,25,8,25,0.34
2013-10-31,53.2,43.6,39.6,53.0,43.0,39.3,99,98,92,29.70,29.49,16,6,16,0.00
2013-11-1,56.3,46.9,39.9,44.5,41.9,39.7,99,84,55,29.90,29.53,18,7,18,0.00
2013-11-2,55.2,44.7,34.0,42.2,38.0,31.9,99,80,44,30.14,29.90,18,6,18,0.00
2013-11-3,56.5,44.5,29.7,39.6,34.4,29.4,99,71,38,30.16,29.91,32,12,32,0.00
2013-11-4,53.1,45.8,33.3,49.7,42.9,33.0,99,90,68,30.18,29.90,22,9,22,0.04
2013-11-5,47.7,40.5,30.9,47.4,40.3,30.7,99,99,95,30.21,29.82,24,7,24,0.65
2013-11-6,45.7,36.0,27.5,37.1,31.7,25.1,99,86,46,30.27,29.89,27,11,27,0.00
2013-11-7,47.7,35.5,26.6,38.4,30.2,23.9,99,83,39,30.32,30.23,16,6,16,0.00
2013-11-8,57.2,41.3,21.9,41.1,32.5,21.2,99,73,45,30.29,29.76,30,10,30,0.00
2013-11-9,57.0,45.1,33.6,41.9,37.1,30.2,91,74,49,30.32,29.83,20,9,20,0.00
2013-11-10,46.0,37.0,23.7,35.0,30.0,23.5,99,77,56,30.43,30.14,17,6,17,0.00
2013-11-11,42.1,28.1,14.0,35.1,24.4,11.2,99,86,72,30.71,30.10,26,13,26,0.00
2013-11-12,32.4,18.2,6.4,16.2,11.3,4.9,95,76,46,30.84,30.56,14,5,14,0.00
2013-11-13,52.3,33.2,15.8,28.2,20.6,11.3,86,62,37,30.56,30.02,40,16,40,0.00
2013-11-14,52.0,40.2,29.5,33.9,28.4,23.0,90,65,40,30.03,29.88,22,9,22,0.00
2013-11-15,56.1,40.9,25.3,39.5,33.6,24.6,99,77,47,29.93,29.72,14,5,14,0.00
2013-11-16,65.1,50.3,38.8,60.5,48.0,36.2,99,92,75,29.73,29.28,31,11,31,0.00
2013-11-17,50.7,43.8,37.0,46.8,41.8,36.3,99,93,78,29.96,29.35,22,7,22,0.14
2013-11-18,46.6,35.6,27.7,36.6,32.2,26.8,99,88,62,30.28,29.95,16,6,16,0.00
2013-11-19,54.5,39.1,25.0,38.3,32.4,24.8,99,79,50,30.27,30.00,24,10,24,0.00
2013-11-20,44.1,40.5,37.2,38.9,35.8,29.9,99,84,60,30.04,29.90,28,11,28,0.00
2013-11-21,38.1,30.1,22.5,37.9,29.8,22.2,99,99,95,30.47,30.03,24,12,24,0.00
2013-11-22,28.6,16.9,8.1,22.2,13.7,5.7,99,87,58,30.64,30.47,24,8,24,0.00
2013-11-23,19.2,10.5,-0.2,13.2,4.9,-3.0,95,78,58,30.83,30.59,22,9,22,0.00
2013-11-24,27.0,14.7,-0.2,16.3,8.3,-2.6,92,76,54,30.75,30.24,24,10,24,0.00
2013-11-25,40.3,29.1,21.7,33.2,25.2,15.6,99,86,69,30.24,30.08,31,12,31,0.00
2013-11-26,30.0,22.9,12.6,27.2,16.1,9.0,99,76,49,30.37,30.14,29,12,29,0.00
2013-11-27,28.4,17.0,5.4,16.1,10.9,3.4,92,78,48,30.40,30.06,15,6,15,0.00
2013-11-28,34.3,21.4,12.6,21.0,15.4,8.6,95,78,54,30.52,30.04,17,7,17,0.00
2013-11-29,35.2,22.9,7.5,27.0,18.3,4.7,92,83,68,30.53,30.21,16,6,16,0.00
2013-11-30,53.8,34.8,24.3,36.7,29.2,22.8,98,81,51,30.21,30.06,12,4,12,0.00
2013-12-1,40.3,32.1,22.1,32.7,29.1,21.6,99,89,71,30.18,29.93,11,3,11,0.00
2013-12-2,47.5,36.0,30.4,41.1,34.6,30.1,99,95,78,29.93,29.57,19,6,19,0.00
2013-12-3,37.8,34.8,30.4,37.5,34.6,30.1,99,99,99,29.70,29.57,12,4,12,0.00
2013-12-4,37.6,29.0,16.2,37.3,28.6,13.8,99,98,90,29.92,29.53,22,6,22,0.00
2013-12-5,17.8,11.2,3.9,14.0,6.5,-1.1,91,81,72,30.40,29.90,26,13,26,0.01
2013-12-6,14.0,4.0,-2.6,4.3,-1.6,-5.9,86,77,62,30.68,30.39,17,8,17,0.00
2013-12-7,15.8,3.1,-6.3,2.5,-3.1,-9.3,87,75,49,30.76,30.52,11,5,11,0.00
2013-12-8,18.0,13.2,6.4,17.8,11.1,2.0,99,91,72,30.53,30.03,19,9,19,0.00
2013-12-9,8.4,-0.5,-7.6,5.7,-4.2,-11.5,98,84,64,30.27,30.04,26,7,26,0.00
2013-12-10,18.9,14.7,5.2,16.7,9.9,0.5,99,81,66,30.23,29.96,34,10,34,0.00
2013-12-11,17.2,2.5,-6.2,17.0,-2.3,-10.1,99,80,63,30.63,30.23,28,7,28,0.00
2013-12-12,28.0,14.0,-1.8,20.3,9.9,-5.3,98,84,65,30.45,30.12,18,7,19,0.00
2013-12-13,25.3,18.8,8.8,22.8,17.4,8.6,99,94,85,30.12,29.98,17,8,17,0.00
2013-12-14,21.7,16.6,9.1,19.6,14.8,6.6,99,92,79,30.18,30.10,16,9,16,0.00
2013-12-15,13.6,10.2,5.4,9.7,7.0,3.4,95,87,75,30.16,30.06,13,6,13,0.00
2013-12-16,25.0,17.8,10.0,23.9,17.1,8.5,99,97,92,30.09,30.01,13,5,13,0.00
2013-12-17,35.1,25.2,14.0,29.9,21.6,11.7,99,87,64,30.21,30.03,30,9,30,0.00
2013-12-18,44.8,29.1,11.3,37.7,25.7,9.7,99,87,71,30.16,29.75,25,6,25,0.00
2013-12-19,31.5,27.5,23.2,29.6,26.5,23.0,99,96,89,29.94,29.80,17,7,17,0.00
2013-12-20,23.7,21.1,18.5,23.5,20.9,18.3,99,99,99,29.95,29.86,17,8,17,0.00
2013-12-21,23.7,20.0,14.0,23.5,19.8,13.8,99,99,98,29.93,29.81,17,7,17,0.00
2013-12-22,23.4,14.8,2.8,23.1,13.3,-0.5,99,94,85,30.32,29.81,24,13,24,0.00
2013-12-23,6.6,-2.5,-11.4,-0.5,-8.3,-17.3,88,76,62,30.54,30.32,18,9,18,0.00
2013-12-24,14.4,-1.0,-16.8,13.7,-5.9,-20.6,97,79,59,30.54,30.19,17,7,17,0.00
2013-12-25,31.5,22.6,14.4,30.6,21.8,13.7,99,97,86,30.25,30.14,21,8,21,0.00
2013-12-26,40.8,26.4,17.2,32.5,24.0,15.9,99,91,69,30.23,30.09,14,5,14,0.00
2013-12-27,46.9,29.8,15.1,36.9,27.1,14.9,99,90,67,30.24,30.05,29,7,29,0.00
2013-12-28,52.5,35.7,17.8,41.5,32.0,17.6,99,88,63,30.09,29.78,23,10,23,0.00
2013-12-29,17.8,4.6,-4.0,17.4,-1.6,-12.6,99,76,48,30.33,30.01,31,14,31,0.00
2013-12-30,9.1,1.4,-6.0,7.5,-2.5,-12.1,95,83,67,30.33,30.12,12,4,12,0.00
2013-12-31,8.6,4.0,-6.3,5.7,1.9,-8.4,96,90,85,30.30,30.19,16,7,16,0.00
2014-1-1,6.1,3.6,1.0,4.1,0.7,-2.1,94,87,80,30.38,30.22,16,9,16,0.00
2014-1-2,7.3,-2.7,-13.7,-0.9,-6.1,-16.8,87,85,65,30.47,30.34,16,8,16,0.00